Time;durP1;ratioP1;P1;durP2;ratioP2;P2;SDS_P1;SDS_P2;PMS_P1;PMS_P2;Temp;Humidity;BMP_temperature;BMP_pressure;BME280_temperature;BME280_humidity;BME280_pressure;Samples;Min_cycle;Max_cycle;Signal;HPM_P1;HPM_P2
2021/12/05 00:21:51;;;;;;;1.80;1.40;;;;;;;3.90;92.72;99678.38;5013394;28;20050;-73
2021/12/05 00:24:22;;;;;;;2.70;1.65;;;;;;;4.06;91.53;99679.81;5038238;28;20068;-74
2021/12/05 00:26:56;;;;;;;4.30;1.33;;;;;;;4.01;91.84;99681.91;5028511;28;20117;-73
2021/12/05 00:29:33;;;;;;;0.85;0.60;;;;;;;4.07;91.83;99676.28;5017682;28;20038;-73
2021/12/05 00:32:10;;;;;;;16.58;2.10;;;;;;;4.01;92.13;99684.53;4996881;28;20057;-74
2021/12/05 00:44:44;;;;;;;10.65;1.50;;;;;;;4.02;92.07;99678.34;4950394;28;20424;-75
2021/12/05 00:47:49;;;;;;;2.65;1.00;;;;;;;4.01;91.67;99679.31;4955414;28;20876;-72
2021/12/05 00:54:25;;;;;;;1.23;0.95;;;;;;;4.08;90.90;99683.16;5014454;28;20553;-76
2021/12/05 01:09:43;;;;;;;1.13;1.02;;;;;;;4.01;90.61;99683.66;4974400;28;20185;-74
2021/12/05 01:12:40;;;;;;;2.03;0.70;;;;;;;3.93;91.25;99683.38;5010442;28;20044;-74
2021/12/05 01:15:29;;;;;;;3.70;0.77;;;;;;;3.77;92.10;99684.53;5016303;28;20059;-74
2021/12/05 01:18:05;;;;;;;0.63;0.38;;;;;;;3.73;92.59;99688.25;5019634;28;20050;-73
2021/12/05 01:20:35;;;;;;;2.05;0.88;;;;;;;3.63;92.75;99685.47;5012983;28;20056;-72
2021/12/05 01:23:23;;;;;;;14.27;2.60;;;;;;;3.54;93.02;99691.28;5004422;28;20047;-73
2021/12/05 01:25:58;;;;;;;3.70;1.58;;;;;;;3.45;93.65;99696.25;5020055;28;20049;-73
2021/12/05 01:28:38;;;;;;;3.10;0.85;;;;;;;3.39;94.02;99700.09;5017606;28;20182;-73
2021/12/05 01:31:17;;;;;;;16.55;2.58;;;;;;;3.29;93.76;99705.97;5017488;28;20124;-73
2021/12/05 01:33:56;;;;;;;9.95;1.70;;;;;;;3.29;94.02;99705.97;5016383;28;20164;-75
2021/12/05 01:36:35;;;;;;;4.70;1.42;;;;;;;3.27;94.10;99703.50;5013651;28;20048;-73
2021/12/05 01:39:21;;;;;;;8.43;1.02;;;;;;;3.14;94.20;99713.97;5015711;28;20038;-72
2021/12/05 02:08:07;;;;;;;3.92;0.98;;;;;;;3.38;93.43;99693.25;5013858;28;20041;-73
2021/12/05 02:10:57;;;;;;;20.17;1.08;;;;;;;3.26;94.18;99696.63;5018046;28;20056;-73
2021/12/05 02:16:33;;;;;;;1.95;1.65;;;;;;;3.16;94.46;99693.94;5021602;28;20068;-72
2021/12/05 02:30:33;;;;;;;1.70;1.10;;;;;;;3.01;94.98;99702.69;5019400;28;20056;-73
2021/12/05 02:33:17;;;;;;;7.30;1.77;;;;;;;2.98;95.10;99708.09;5006033;28;20057;-72
2021/12/05 02:36:19;;;;;;;3.88;1.45;;;;;;;2.98;95.85;99705.50;5013265;28;20049;-73
2021/12/05 02:41:36;;;;;;;0.82;0.70;;;;;;;3.05;95.38;99711.97;5014448;28;20061;-74
2021/12/05 02:44:20;;;;;;;11.80;1.25;;;;;;;3.14;95.77;99695.78;5015735;28;20045;-74
2021/12/05 02:46:58;;;;;;;6.40;1.92;;;;;;;3.28;94.61;99699.97;5013224;28;20049;-73
2021/12/05 02:49:30;;;;;;;9.70;1.38;;;;;;;3.36;94.67;99689.09;5017043;28;20033;-73
2021/12/05 02:52:11;;;;;;;0.63;0.55;;;;;;;3.48;93.87;99701.25;5008373;28;20050;-74
2021/12/05 02:54:45;;;;;;;2.03;1.40;;;;;;;3.57;93.60;99690.25;5016008;28;20049;-73
2021/12/05 02:57:24;;;;;;;1.23;0.60;;;;;;;3.54;93.17;99690.44;5009080;28;20041;-74
2021/12/05 02:59:54;;;;;;;13.27;0.82;;;;;;;3.51;93.18;99694.06;4996855;28;20057;-74
2021/12/05 03:02:37;;;;;;;5.20;1.17;;;;;;;3.54;93.33;99696.47;5011334;28;20050;-74
2021/12/05 03:05:13;;;;;;;2.50;0.47;;;;;;;3.47;93.28;99697.81;5015219;28;20484;-73
2021/12/05 03:07:42;;;;;;;3.15;0.98;;;;;;;3.46;93.98;99695.31;5013150;28;20064;-74
2021/12/05 03:10:13;;;;;;;18.73;1.95;;;;;;;3.41;93.81;99694.78;5015359;28;20048;-71
2021/12/05 03:12:40;;;;;;;1.35;0.63;;;;;;;3.37;94.04;99688.97;5008928;28;20164;-74
2021/12/05 03:15:20;;;;;;;4.70;1.10;;;;;;;3.38;94.31;99690.66;5013716;28;20076;-73
2021/12/05 03:17:54;;;;;;;1.08;0.80;;;;;;;3.28;93.99;99686.19;5011019;28;20037;-73
2021/12/05 03:20:24;;;;;;;0.65;0.63;;;;;;;3.26;94.46;99681.06;4998652;28;20187;-76
2021/12/05 03:23:10;;;;;;;0.38;0.28;;;;;;;3.20;94.62;99673.69;5012204;28;20057;-74
2021/12/05 03:25:38;;;;;;;1.20;0.88;;;;;;;3.27;94.72;99672.34;5016199;28;20049;-73
2021/12/05 03:28:11;;;;;;;4.47;1.67;;;;;;;3.31;94.11;99678.16;5013971;28;20041;-74
2021/12/05 03:30:41;;;;;;;3.67;1.75;;;;;;;3.35;93.88;99669.25;5000293;28;20823;-72
2021/12/05 03:33:09;;;;;;;0.40;0.40;;;;;;;3.32;94.19;99670.28;5020344;28;20049;-73
2021/12/05 03:35:54;;;;;;;1.30;1.20;;;;;;;3.24;94.31;99662.16;5029587;28;20060;-73
2021/12/05 03:38:21;;;;;;;0.63;0.50;;;;;;;3.17;94.00;99673.06;5031557;28;20041;-71
2021/12/05 03:40:55;;;;;;;3.97;0.98;;;;;;;3.09;94.62;99677.09;5012629;28;20033;-73
2021/12/05 03:43:30;;;;;;;0.45;0.45;;;;;;;3.09;94.93;99677.09;5030634;28;20067;-73
2021/12/05 03:45:58;;;;;;;5.45;1.17;;;;;;;3.18;94.52;99672.97;5029998;28;20040;-75
2021/12/05 03:48:28;;;;;;;3.60;1.15;;;;;;;3.26;94.06;99675.06;5032910;28;20725;-74
2021/12/05 03:50:56;;;;;;;5.78;1.38;;;;;;;3.24;94.17;99682.94;5026786;28;20045;-74
2021/12/05 03:53:30;;;;;;;0.70;0.68;;;;;;;3.35;93.45;99683.06;5033201;28;20046;-74
2021/12/05 03:55:59;;;;;;;18.05;2.75;;;;;;;3.22;94.02;99686.56;5031989;28;20056;-74
2021/12/05 03:58:28;;;;;;;1.52;1.00;;;;;;;3.23;94.02;99686.47;5033493;28;20128;-73
2021/12/05 04:00:57;;;;;;;12.52;1.58;;;;;;;3.09;94.11;99688.31;5027957;28;20069;-75
2021/12/05 04:03:34;;;;;;;0.55;0.38;;;;;;;2.96;94.70;99691.81;5036717;28;20088;-74
2021/12/05 04:06:17;;;;;;;4.43;0.95;;;;;;;3.00;95.36;99694.09;5039641;28;20485;-73
2021/12/05 04:09:08;;;;;;;2.05;0.88;;;;;;;3.09;95.01;99698.69;5048228;28;20091;-74
2021/12/05 04:11:55;;;;;;;3.95;1.08;;;;;;;3.21;94.53;99696.13;5052165;28;20048;-71
2021/12/05 04:14:36;;;;;;;10.32;2.25;;;;;;;3.34;94.24;99686.56;5040896;28;20056;-74
2021/12/05 04:17:12;;;;;;;6.40;0.82;;;;;;;3.35;94.14;99680.47;5055957;28;20060;-71
2021/12/05 04:19:43;;;;;;;17.10;1.60;;;;;;;3.54;93.58;99685.25;5064046;28;20036;-72
2021/12/05 04:22:22;;;;;;;3.97;0.80;;;;;;;3.57;93.30;99680.66;5048039;28;20113;-72
2021/12/05 04:25:10;;;;;;;0.90;0.65;;;;;;;3.64;92.71;99671.56;5057404;28;20118;-72
2021/12/05 04:27:45;;;;;;;11.30;0.70;;;;;;;3.70;92.87;99681.53;5042575;28;20041;-73
2021/12/05 04:30:26;;;;;;;4.45;1.45;;;;;;;3.71;93.02;99680.59;5042129;28;20120;-76
2021/12/05 04:32:53;;;;;;;1.02;0.57;;;;;;;3.85;91.38;99675.28;5039640;28;20061;-73
2021/12/05 04:35:19;;;;;;;4.07;1.08;;;;;;;3.85;91.65;99683.06;5036792;28;20057;-75
2021/12/05 04:37:46;;;;;;;4.00;1.13;;;;;;;3.82;92.10;99679.84;5027376;28;20081;-72
2021/12/05 04:40:14;;;;;;;2.92;0.93;;;;;;;3.79;91.70;99675.69;5018917;28;20583;-75
2021/12/05 04:42:41;;;;;;;7.05;1.23;;;;;;;3.89;91.22;99686.28;5035909;28;20047;-74
2021/12/05 04:45:12;;;;;;;0.88;0.50;;;;;;;3.96;90.92;99684.00;5036150;28;20045;-74
2021/12/05 04:47:39;;;;;;;1.35;0.75;;;;;;;3.95;90.71;99686.69;5034243;28;20057;-73
2021/12/05 04:50:06;;;;;;;3.28;0.75;;;;;;;3.95;90.97;99686.69;5032254;28;20049;-75
2021/12/05 04:52:33;;;;;;;1.30;0.90;;;;;;;3.95;90.77;99684.09;5035231;28;20238;-71
2021/12/05 04:55:01;;;;;;;1.58;0.93;;;;;;;3.96;90.71;99684.00;5011055;28;20065;-73
2021/12/05 04:57:27;;;;;;;0.60;0.45;;;;;;;4.00;91.51;99682.00;5028418;28;20124;-71
2021/12/05 04:59:54;;;;;;;22.40;2.63;;;;;;;3.99;91.52;99678.59;5028424;28;20112;-69
2021/12/05 05:02:22;;;;;;;0.50;0.45;;;;;;;4.07;90.55;99676.28;5031896;28;20126;-68
2021/12/05 05:04:50;;;;;;;1.58;0.85;;;;;;;4.02;90.95;99667.16;5033131;28;20064;-69
2021/12/05 05:07:22;;;;;;;5.43;1.50;;;;;;;3.93;91.08;99678.19;5027573;28;20048;-69
2021/12/05 05:09:51;;;;;;;1.30;0.57;;;;;;;4.01;90.95;99681.06;5037008;28;20047;-67
2021/12/05 05:12:18;;;;;;;1.05;0.63;;;;;;;4.09;90.70;99678.78;5028255;28;20052;-68
2021/12/05 05:14:44;;;;;;;1.00;0.70;;;;;;;4.12;90.23;99678.56;5036387;28;20102;-68
2021/12/05 05:17:11;;;;;;;8.88;1.42;;;;;;;4.14;90.81;99676.69;5032637;28;20127;-67
2021/12/05 05:19:42;;;;;;;0.93;0.55;;;;;;;4.22;90.13;99692.59;5035501;28;20045;-71
2021/12/05 05:22:20;;;;;;;2.08;0.90;;;;;;;4.23;90.32;99687.28;5027181;28;20092;-68
2021/12/05 05:27:59;;;;;;;3.78;1.40;;;;;;;4.17;89.73;99686.88;5026559;28;20053;-66
2021/12/05 05:30:40;;;;;;;1.03;0.93;;;;;;;4.20;89.71;99691.88;5031977;28;20042;-70
2021/12/05 05:47:07;;;;;;;1.40;1.30;;;;;;;4.07;90.94;99697.09;5029129;28;20401;-68
2021/12/05 05:49:48;;;;;;;1.90;1.27;;;;;;;4.04;90.61;99702.47;5032252;28;20060;-68
2021/12/05 05:52:18;;;;;;;2.53;0.95;;;;;;;4.13;90.68;99706.22;5034044;28;20053;-68
2021/12/05 05:54:47;;;;;;;2.38;1.25;;;;;;;4.11;90.75;99702.91;5030338;28;20488;-67
2021/12/05 05:57:20;;;;;;;6.05;1.55;;;;;;;4.12;90.57;99709.75;5034417;28;20056;-68
2021/12/05 05:59:53;;;;;;;1.02;0.85;;;;;;;4.12;90.02;99707.16;5026762;28;20080;-70
2021/12/05 06:05:04;;;;;;;3.45;1.35;;;;;;;4.12;90.31;99709.75;5034629;28;20045;-68
2021/12/05 06:07:33;;;;;;;7.88;1.67;;;;;;;4.16;89.80;99706.00;5015123;28;20342;-69
2021/12/05 06:10:00;;;;;;;1.95;1.40;;;;;;;4.16;90.26;99703.41;5040041;28;20056;-66
2021/12/05 06:12:26;;;;;;;2.15;1.30;;;;;;;4.15;90.47;99709.53;5047127;28;20029;-69
2021/12/05 06:14:53;;;;;;;7.75;1.50;;;;;;;4.12;90.63;99709.75;5041401;28;20063;-69
2021/12/05 06:17:20;;;;;;;4.72;1.33;;;;;;;4.08;90.44;99708.28;5048798;28;20044;-68
2021/12/05 06:19:51;;;;;;;1.75;1.05;;;;;;;4.03;91.10;99710.38;5035677;28;20045;-69
2021/12/05 06:22:18;;;;;;;3.83;0.85;;;;;;;4.02;91.04;99719.13;5036900;28;20047;-67
2021/12/05 06:24:46;;;;;;;1.50;1.00;;;;;;;4.01;90.24;99718.28;5019597;28;20052;-67
2021/12/05 06:27:13;;;;;;;1.75;0.85;;;;;;;3.98;91.08;99712.47;5038794;28;20083;-68
2021/12/05 06:30:05;;;;;;;1.05;0.73;;;;;;;3.95;91.56;99718.69;5035950;28;20132;-67
2021/12/05 06:38:08;;;;;;;2.25;0.80;;;;;;;3.90;92.81;99721.72;5032312;28;20189;-69
2021/12/05 06:40:51;;;;;;;8.25;0.60;;;;;;;3.91;92.38;99724.19;5035384;28;20087;-68
2021/12/05 06:46:04;;;;;;;2.60;1.48;;;;;;;3.87;93.21;99735.75;5017912;28;20235;-73
2021/12/05 06:48:31;;;;;;;3.45;1.13;;;;;;;3.90;92.88;99734.72;5035981;28;20048;-73
2021/12/05 06:50:58;;;;;;;3.72;0.68;;;;;;;3.87;92.31;99738.34;5034139;28;20053;-73
2021/12/05 06:53:24;;;;;;;3.92;1.15;;;;;;;3.90;92.56;99743.31;5048539;28;20052;-72
2021/12/05 06:55:53;;;;;;;4.30;0.60;;;;;;;3.88;92.62;99736.56;5052871;28;20033;-73
2021/12/05 06:58:19;;;;;;;2.78;1.25;;;;;;;3.87;92.73;99751.34;5045746;28;20048;-73
2021/12/05 07:00:46;;;;;;;0.88;0.57;;;;;;;3.86;92.54;99751.44;5030029;28;20029;-72
2021/12/05 07:05:53;;;;;;;1.40;0.77;;;;;;;3.97;92.07;99757.59;5090330;27;20358;-73
2021/12/05 07:08:23;;;;;;;1.58;0.95;;;;;;;3.94;92.42;99773.38;5074068;28;20043;-75
2021/12/05 07:10:55;;;;;;;2.88;1.35;;;;;;;3.92;92.69;99770.03;5067340;28;20063;-74
2021/12/05 07:16:14;;;;;;;1.17;0.75;;;;;;;3.97;92.55;99767.97;5068054;28;20046;-73
2021/12/05 07:18:54;;;;;;;1.23;0.75;;;;;;;3.94;93.04;99777.75;5065780;28;20048;-74
2021/12/05 07:21:40;;;;;;;1.55;1.27;;;;;;;3.93;93.34;99774.28;5068718;28;20072;-73
2021/12/05 07:24:14;;;;;;;1.20;0.70;;;;;;;3.95;93.77;99777.63;5056628;28;20049;-74
2021/12/05 07:27:02;;;;;;;2.97;2.20;;;;;;;3.99;93.60;99786.88;5066997;28;20047;-73
2021/12/05 07:40:36;;;;;;;0.60;0.43;;;;;;;3.99;93.77;99802.44;5069840;28;20048;-74
2021/12/05 07:43:05;;;;;;;0.63;0.60;;;;;;;4.00;94.05;99810.16;5068722;28;20048;-72
2021/12/05 07:45:37;;;;;;;5.13;0.88;;;;;;;4.01;94.00;99800.59;5071997;28;20055;-74
2021/12/05 07:48:11;;;;;;;1.38;0.70;;;;;;;4.02;93.97;99807.47;5050052;28;20109;-73
2021/12/05 07:50:41;;;;;;;4.43;0.93;;;;;;;4.00;94.67;99812.75;5072692;28;20093;-72
2021/12/05 07:53:17;;;;;;;2.92;0.73;;;;;;;4.03;93.86;99814.31;5066463;28;20128;-71
2021/12/05 07:55:47;;;;;;;0.85;0.57;;;;;;;4.00;94.31;99820.56;5071073;28;20040;-71
2021/12/05 07:58:28;;;;;;;3.33;0.85;;;;;;;4.07;94.25;99816.59;5069522;28;20036;-73
2021/12/05 08:01:03;;;;;;;2.83;0.70;;;;;;;4.11;94.19;99835.41;5069958;28;20116;-69
2021/12/05 08:14:34;;;;;;;4.55;0.90;;;;;;;4.08;94.85;99833.03;5077082;28;20045;-74
2021/12/05 08:17:03;;;;;;;0.98;0.88;;;;;;;4.07;95.60;99831.34;5058494;28;20043;-74
2021/12/05 08:19:30;;;;;;;1.48;0.60;;;;;;;4.08;95.12;99833.88;5056560;28;20498;-73
2021/12/05 08:21:57;;;;;;;1.25;1.00;;;;;;;4.07;94.84;99844.34;5039681;28;20461;-73
2021/12/05 08:24:30;;;;;;;4.07;1.35;;;;;;;4.07;95.06;99836.53;5037410;28;20645;-72
2021/12/05 08:26:57;;;;;;;0.63;0.50;;;;;;;4.06;95.15;99840.09;5053952;28;20125;-72
2021/12/05 08:29:32;;;;;;;3.40;1.17;;;;;;;4.10;95.00;99846.75;5058188;28;20040;-73
2021/12/05 08:32:17;;;;;;;3.03;1.15;;;;;;;4.11;94.61;99843.22;5036302;28;20134;-72
2021/12/05 08:34:59;;;;;;;1.33;1.20;;;;;;;4.17;94.96;99841.06;5056570;28;20056;-69
2021/12/05 09:08:19;;;;;;;1.38;1.00;;;;;;;4.43;94.32;99850.50;5060742;28;20141;-71
2021/12/05 09:38:32;;;;;;;4.45;2.75;;;;;;;5.06;92.22;99914.53;5023846;28;20162;-73
2021/12/05 10:02:23;;;;;;;6.45;1.98;;;;;;;5.11;91.92;99948.91;5042052;28;20179;-71
2021/12/05 10:07:47;;;;;;;4.03;2.13;;;;;;;5.41;92.29;99951.94;5069337;28;20087;-73
2021/12/05 10:10:26;;;;;;;4.13;2.65;;;;;;;5.50;91.36;99956.50;5059913;28;20048;-72
2021/12/05 10:13:06;;;;;;;3.92;2.30;;;;;;;5.54;90.44;99952.72;5051671;28;20251;-74
2021/12/05 10:15:54;;;;;;;5.05;2.53;;;;;;;5.71;90.52;99958.41;5052765;28;20076;-77
2021/12/05 10:38:02;;;;;;;2.13;1.65;;;;;;;5.38;92.09;99982.59;5010898;28;20041;-73
2021/12/05 10:40:40;;;;;;;4.43;2.17;;;;;;;5.26;91.93;99984.28;5054370;28;20048;-72
2021/12/05 10:43:12;;;;;;;3.20;2.35;;;;;;;5.22;93.01;99985.41;5052771;28;20040;-73
2021/12/05 10:45:44;;;;;;;2.90;2.58;;;;;;;5.19;92.36;99987.41;5057511;28;20049;-74
2021/12/05 10:48:19;;;;;;;4.15;2.33;;;;;;;5.37;92.68;99984.38;5056890;28;20082;-72
2021/12/05 10:50:49;;;;;;;2.97;1.83;;;;;;;5.42;92.52;99991.84;5064217;28;20071;-72
2021/12/05 10:53:43;;;;;;;4.43;2.38;;;;;;;5.43;92.60;99981.31;5036977;28;20048;-73
2021/12/05 10:56:13;;;;;;;6.20;2.53;;;;;;;5.48;92.77;99989.63;5017219;28;20098;-74
2021/12/05 10:58:45;;;;;;;4.20;2.33;;;;;;;5.49;91.94;99980.88;5052357;28;20052;-73
2021/12/05 11:01:22;;;;;;;5.65;1.92;;;;;;;5.50;91.95;99979.94;5051986;28;20049;-72
2021/12/05 11:03:51;;;;;;;2.92;2.40;;;;;;;5.54;90.62;99991.81;5034699;28;20048;-73
2021/12/05 11:06:38;;;;;;;12.70;2.75;;;;;;;5.44;91.30;99990.81;5050630;28;20056;-73
2021/12/05 11:09:13;;;;;;;4.38;2.50;;;;;;;5.24;92.31;100001.75;5050382;28;20056;-74
2021/12/05 11:11:42;;;;;;;8.77;3.08;;;;;;;5.19;92.68;100003.00;5037256;28;20564;-73
2021/12/05 11:14:12;;;;;;;8.80;2.95;;;;;;;5.08;93.01;100006.34;5057176;28;20080;-75
2021/12/05 11:16:48;;;;;;;4.10;2.63;;;;;;;5.02;93.95;100001.56;5055654;28;20040;-74
2021/12/05 11:19:19;;;;;;;2.92;2.10;;;;;;;4.97;94.02;100013.22;5052156;28;20033;-72
2021/12/05 11:21:48;;;;;;;3.75;2.92;;;;;;;4.89;94.92;100018.13;5050722;28;20376;-77
2021/12/05 11:24:28;;;;;;;3.83;2.13;;;;;;;4.86;95.17;100015.72;5054712;28;20150;-74
2021/12/05 11:27:24;;;;;;;4.72;2.47;;;;;;;4.82;95.84;100015.09;5029901;28;20588;-73
2021/12/05 11:29:59;;;;;;;7.55;3.10;;;;;;;4.87;95.91;100023.44;5055383;28;20044;-71
2021/12/05 11:32:36;;;;;;;5.72;2.50;;;;;;;4.80;95.37;100021.34;5051833;28;20048;-70
2021/12/05 11:35:16;;;;;;;2.80;2.08;;;;;;;4.80;95.15;100016.97;5056245;28;20040;-74
2021/12/05 11:37:52;;;;;;;2.40;1.52;;;;;;;4.77;95.34;100016.34;5052917;28;20040;-72
2021/12/05 11:40:21;;;;;;;1.85;1.50;;;;;;;4.69;94.49;100023.00;5050392;28;20045;-71
2021/12/05 11:42:54;;;;;;;4.03;1.58;;;;;;;4.72;95.55;100024.44;5047574;28;20037;-72
2021/12/05 11:45:21;;;;;;;2.15;1.55;;;;;;;4.74;95.46;100030.38;5053979;28;20052;-74
2021/12/05 11:47:47;;;;;;;3.80;1.73;;;;;;;4.87;95.38;100031.25;5056665;28;20037;-73
2021/12/05 11:50:18;;;;;;;5.65;2.97;;;;;;;5.12;95.08;100030.41;5051091;28;20041;-73
2021/12/05 11:52:45;;;;;;;2.45;1.70;;;;;;;5.44;93.47;100026.41;5057648;28;20053;-73
2021/12/05 11:55:23;;;;;;;3.13;2.33;;;;;;;5.67;93.11;100032.53;5059839;28;20042;-72
2021/12/05 11:57:51;;;;;;;1.38;1.13;;;;;;;5.67;91.99;100026.50;5064138;28;20044;-71
2021/12/05 12:00:20;;;;;;;1.45;1.33;;;;;;;5.73;93.15;100036.47;5069289;28;20037;-73
2021/12/05 12:02:49;;;;;;;2.88;1.98;;;;;;;5.65;91.25;100031.81;5079034;28;20043;-73
2021/12/05 12:05:19;;;;;;;0.95;0.82;;;;;;;5.55;91.40;100025.56;5073340;28;20103;-75
2021/12/05 12:07:49;;;;;;;2.63;1.42;;;;;;;5.72;92.26;100035.66;5062648;28;20056;-73
2021/12/05 12:10:21;;;;;;;1.60;1.10;;;;;;;5.76;91.17;100033.66;5058396;28;20047;-74
2021/12/05 12:12:52;;;;;;;2.22;1.23;;;;;;;5.80;89.74;100032.53;5050331;28;20037;-73
2021/12/05 12:15:22;;;;;;;2.40;1.60;;;;;;;5.85;90.05;100044.28;5040419;28;20044;-74
2021/12/05 12:17:50;;;;;;;2.17;1.30;;;;;;;5.89;90.77;100037.09;5056909;28;20140;-75
2021/12/05 12:20:21;;;;;;;2.10;1.48;;;;;;;5.75;90.86;100038.03;5054901;28;20127;-73
2021/12/05 12:22:49;;;;;;;2.30;1.45;;;;;;;5.73;90.78;100042.53;5057497;28;20543;-73
2021/12/05 12:25:20;;;;;;;5.07;2.92;;;;;;;5.95;90.56;100042.69;5053725;28;21649;-72
2021/12/05 12:27:49;;;;;;;3.78;1.23;;;;;;;6.07;90.61;100046.19;5053160;28;20041;-72
2021/12/05 12:30:24;;;;;;;2.80;1.60;;;;;;;6.19;89.79;100046.16;5053488;28;20129;-72
2021/12/05 12:32:53;;;;;;;3.65;2.20;;;;;;;6.11;89.88;100048.47;5060040;28;20059;-72
2021/12/05 12:35:22;;;;;;;2.10;1.67;;;;;;;6.00;89.64;100044.97;5054096;28;20422;-72
2021/12/05 12:37:54;;;;;;;2.35;1.73;;;;;;;5.97;90.93;100051.25;5053261;28;20048;-71
2021/12/05 12:40:32;;;;;;;3.85;2.53;;;;;;;5.70;91.58;100049.72;5052823;28;20040;-75
2021/12/05 12:43:01;;;;;;;3.50;2.45;;;;;;;5.48;91.78;100052.16;5056685;28;20381;-73
2021/12/05 12:45:28;;;;;;;1.77;1.67;;;;;;;5.43;92.44;100054.25;5038336;28;20505;-73
2021/12/05 12:47:56;;;;;;;2.47;1.92;;;;;;;5.39;91.89;100057.16;5052484;28;20151;-73
2021/12/05 12:50:34;;;;;;;10.23;2.22;;;;;;;5.26;91.64;100059.78;5052639;28;20058;-75
2021/12/05 12:53:16;;;;;;;5.22;2.13;;;;;;;5.40;92.00;100054.44;5056425;28;20048;-73
2021/12/05 12:55:44;;;;;;;;;;;;;;;5.41;91.59;100055.31;5055062;28;20044;-73
2021/12/05 12:58:13;;;;;;;1.55;1.45;;;;;;;5.48;91.42;100056.53;5053491;28;19939;-76
2021/12/05 13:00:43;;;;;;;6.30;1.98;;;;;;;5.39;91.85;100065.78;5057629;28;20039;-73
2021/12/05 13:03:26;;;;;;;3.83;2.97;;;;;;;5.32;91.91;100058.53;5038598;28;20056;-72
2021/12/05 13:11:48;;;;;;;5.38;2.78;;;;;;;5.36;93.00;100066.03;5038486;28;20037;-70
2021/12/05 13:14:27;;;;;;;2.50;1.80;;;;;;;5.35;91.92;100074.78;5056746;28;20040;-70
2021/12/05 13:16:56;;;;;;;7.88;2.28;;;;;;;5.24;92.48;100074.66;5037960;28;20476;-72
2021/12/05 13:19:26;;;;;;;2.67;2.08;;;;;;;5.21;93.26;100087.88;5054828;28;20135;-71
2021/12/05 13:21:56;;;;;;;2.53;2.08;;;;;;;5.28;92.97;100094.38;5039809;28;20041;-71
2021/12/05 13:24:27;;;;;;;3.97;2.33;;;;;;;5.30;93.41;100092.47;5056056;28;20037;-71
2021/12/05 13:27:01;;;;;;;2.50;1.58;;;;;;;5.49;93.07;100098.09;5051700;28;20052;-71
2021/12/05 13:29:31;;;;;;;4.75;2.35;;;;;;;5.49;91.15;100095.50;5054395;28;20036;-74
2021/12/05 13:32:06;;;;;;;2.30;1.50;;;;;;;5.50;90.95;100091.94;5055051;28;20044;-73
2021/12/05 13:34:39;;;;;;;2.22;1.45;;;;;;;5.46;90.44;100100.91;5051293;28;20141;-74
2021/12/05 13:37:32;;;;;;;3.03;1.52;;;;;;;5.54;89.54;100096.00;5039028;28;20053;-73
2021/12/05 13:40:17;;;;;;;3.05;1.75;;;;;;;5.53;90.03;100103.00;5055942;28;20045;-74
2021/12/05 13:42:48;;;;;;;1.33;0.82;;;;;;;5.53;88.34;100101.31;5059930;28;20052;-76
2021/12/05 13:45:23;;;;;;;5.85;1.63;;;;;;;5.61;89.07;100099.88;5036358;28;20048;-73
2021/12/05 13:48:29;;;;;;;1.60;1.38;;;;;;;5.72;88.50;100110.38;5025743;28;20048;-73
2021/12/05 13:50:59;;;;;;;1.30;0.75;;;;;;;5.76;89.32;100109.22;5062268;28;20048;-73
2021/12/05 13:53:47;;;;;;;6.50;1.40;;;;;;;5.94;88.33;100107.97;5055859;28;20045;-74
2021/12/05 13:56:24;;;;;;;1.30;1.00;;;;;;;6.08;87.73;100116.47;5062765;28;20063;-72
2021/12/05 13:58:53;;;;;;;3.30;2.10;;;;;;;6.13;85.80;100118.75;5070290;28;20052;-75
2021/12/05 14:01:28;;;;;;;4.72;1.13;;;;;;;6.04;86.42;100127.22;5046060;28;20057;-73
2021/12/05 14:04:08;;;;;;;1.65;1.17;;;;;;;6.02;86.51;100126.53;5054755;28;20072;-79
2021/12/05 14:06:47;;;;;;;2.05;1.33;;;;;;;6.14;87.57;100126.50;5033560;28;20053;-73
2021/12/05 14:09:27;;;;;;;1.92;1.20;;;;;;;6.14;85.37;100130.84;5056064;28;20048;-76
2021/12/05 14:12:00;;;;;;;2.33;1.38;;;;;;;6.08;86.44;100136.50;5052288;28;20040;-74
2021/12/05 14:14:29;;;;;;;1.63;1.00;;;;;;;6.00;86.28;100150.06;5057531;28;20039;-76
2021/12/05 14:16:59;;;;;;;2.50;1.98;;;;;;;5.93;86.63;100168.88;5053516;28;20140;-73
2021/12/05 14:19:28;;;;;;;1.42;1.05;;;;;;;5.96;87.11;100160.81;5037979;28;20064;-72
2021/12/05 14:21:58;;;;;;;3.15;1.98;;;;;;;5.89;86.22;100172.63;5053550;28;20086;-72
2021/12/05 14:24:27;;;;;;;3.22;1.23;;;;;;;5.80;87.13;100183.66;5055399;28;20056;-72
2021/12/05 14:26:58;;;;;;;2.95;1.70;;;;;;;5.71;88.05;100176.44;5054299;28;20123;-72
2021/12/05 14:29:27;;;;;;;2.78;1.15;;;;;;;5.63;87.84;100176.13;5054648;28;20111;-73
2021/12/05 14:31:58;;;;;;;1.98;1.02;;;;;;;5.62;87.61;100185.72;5039554;28;20131;-72
2021/12/05 14:34:25;;;;;;;2.60;1.58;;;;;;;5.49;88.44;100189.25;5034158;28;20101;-74
2021/12/05 14:36:55;;;;;;;5.32;1.38;;;;;;;5.56;88.41;100186.16;5055578;28;20051;-72
2021/12/05 14:39:25;;;;;;;3.25;1.63;;;;;;;5.55;88.74;100184.47;5041597;28;20226;-71
2021/12/05 14:41:54;;;;;;;2.47;1.45;;;;;;;5.61;88.62;100191.06;5071130;28;20070;-76
2021/12/05 14:44:22;;;;;;;11.60;1.83;;;;;;;5.56;89.16;100191.38;5068803;28;20036;-74
2021/12/05 14:46:52;;;;;;;6.32;1.80;;;;;;;5.60;89.93;100192.81;5064062;28;20040;-74
2021/12/05 14:49:22;;;;;;;2.75;1.85;;;;;;;5.52;89.55;100193.44;5035321;28;20047;-75
2021/12/05 14:51:50;;;;;;;6.90;1.77;;;;;;;5.54;89.79;100201.03;5036434;28;20098;-75
2021/12/05 14:54:23;;;;;;;3.47;2.25;;;;;;;5.48;89.85;100203.22;5047836;28;20048;-74
2021/12/05 14:56:49;;;;;;;2.67;1.67;;;;;;;5.30;89.47;100206.22;5052436;28;20059;-75
2021/12/05 14:59:17;;;;;;;8.23;1.42;;;;;;;5.19;90.47;100198.28;5033039;28;20147;-74
2021/12/05 15:01:49;;;;;;;3.30;1.38;;;;;;;5.11;91.40;100204.00;5055372;28;20128;-74
2021/12/05 15:04:20;;;;;;;10.43;1.55;;;;;;;5.09;91.51;100213.66;5052448;28;20055;-73
2021/12/05 15:06:48;;;;;;;3.25;2.03;;;;;;;5.02;92.13;100209.81;5049350;28;20167;-73
2021/12/05 15:09:20;;;;;;;5.65;2.00;;;;;;;4.97;92.22;100221.44;5057446;28;20102;-75
2021/12/05 15:11:52;;;;;;;4.07;1.90;;;;;;;4.97;92.94;100227.47;5037332;28;20045;-72
2021/12/05 15:14:19;;;;;;;3.08;1.75;;;;;;;5.02;92.38;100230.63;5041383;28;20266;-71
2021/12/05 15:16:55;;;;;;;1.35;1.00;;;;;;;5.03;92.94;100236.66;5053291;28;20124;-71
2021/12/05 15:19:23;;;;;;;3.13;2.42;;;;;;;5.00;93.11;100240.28;5047037;28;20049;-71
2021/12/05 15:21:52;;;;;;;2.92;1.70;;;;;;;5.06;92.20;100252.09;5049096;28;20406;-72
2021/12/05 15:24:21;;;;;;;5.45;1.90;;;;;;;4.97;93.07;100253.50;5049277;28;20141;-71
2021/12/05 15:26:48;;;;;;;2.67;1.92;;;;;;;5.01;93.70;100264.53;5052607;28;20048;-74
2021/12/05 15:29:15;;;;;;;3.10;2.08;;;;;;;5.03;93.77;100260.06;5059130;28;20041;-74
2021/12/05 15:31:43;;;;;;;3.47;2.10;;;;;;;4.95;92.89;100271.00;5058448;28;20036;-72
2021/12/05 15:34:29;;;;;;;5.63;2.40;;;;;;;4.95;93.05;100280.56;5058336;28;20094;-71
2021/12/05 15:36:59;;;;;;;5.07;2.47;;;;;;;4.97;93.32;100283.91;5057486;28;20051;-71
2021/12/05 15:39:30;;;;;;;4.38;2.60;;;;;;;4.93;92.98;100287.59;5059466;28;20053;-73
2021/12/05 15:42:01;;;;;;;2.30;1.77;;;;;;;4.92;93.56;100296.38;5060700;28;20045;-74
2021/12/05 15:44:35;;;;;;;4.95;2.22;;;;;;;4.86;93.26;100302.81;5061434;28;20059;-73
2021/12/05 15:47:10;;;;;;;3.50;2.05;;;;;;;4.85;93.47;100306.31;5066016;28;20041;-73
2021/12/05 15:49:42;;;;;;;5.07;3.00;;;;;;;4.83;93.88;100316.00;5065127;28;20119;-73
2021/12/05 15:52:11;;;;;;;3.47;2.20;;;;;;;4.80;93.83;100323.16;5078641;28;20501;-73
2021/12/05 15:54:39;;;;;;;4.18;2.17;;;;;;;4.72;94.03;100318.41;5061441;28;20049;-75
2021/12/05 15:57:11;;;;;;;2.67;1.98;;;;;;;4.72;94.89;100324.56;5073615;28;20053;-73
2021/12/05 15:59:40;;;;;;;2.85;2.15;;;;;;;4.68;94.78;100323.06;5054050;28;20040;-72
2021/12/05 16:02:18;;;;;;;2.67;1.88;;;;;;;4.64;95.53;100319.00;5040188;28;20142;-71
2021/12/05 16:04:53;;;;;;;3.40;1.90;;;;;;;4.74;94.64;100326.16;5050024;28;20040;-72
2021/12/05 16:07:25;;;;;;;3.05;2.17;;;;;;;4.80;95.23;100331.78;5058187;28;20090;-71
2021/12/05 16:09:53;;;;;;;6.88;3.42;;;;;;;4.75;95.61;100331.25;5037300;28;20477;-72
2021/12/05 16:12:21;;;;;;;3.78;2.45;;;;;;;4.62;95.71;100324.28;5058692;28;20126;-72
2021/12/05 16:14:56;;;;;;;3.75;2.42;;;;;;;4.72;96.04;100344.44;5055465;28;20091;-74
2021/12/05 16:17:26;;;;;;;16.02;3.63;;;;;;;4.74;95.49;100352.16;5055365;28;20094;-73
2021/12/05 16:20:13;;;;;;;13.25;2.80;;;;;;;4.85;94.88;100353.16;5052969;28;20051;-73
2021/12/05 16:23:13;;;;;;;4.32;2.20;;;;;;;4.95;95.08;100362.09;5036413;28;20135;-73